Impacts TAF Board
For situational awareness. Not to be used for flight planning purposes.
IDs:

KPHL - Philadelphia Intl, PA, US

Issued at 2322 UTC 02 Oct 2022
Updated at 2329 UTC 02 Oct 2022
Potential Impact None Slight Moderate High
Time<<03/12Z 03/13Z 03/14Z 03/15Z 03/16Z 03/17Z 03/18Z 03/19Z 03/20Z 03/21Z 03/22Z 03/23Z 04/00Z>>
Type PRVL PRVL PRVL PRVL PRVL PRVL PRVL PRVL PRVL PRVL PRVL PRVL PRVL
VIS 6 6 >6 >6 >6 >6 >6 >6 >6 >6 >6 >6 >6
CIG 90 90 100 100 100 100 100 100 100 100 100 100 100
Cover OVC OVC OVC OVC OVC OVC OVC OVC OVC OVC OVC OVC OVC
FltCat VFR VFR VFR VFR VFR VFR VFR VFR VFR VFR VFR VFR VFR
WX -DZ -DZ -- -- -- -- -- -- -- -- -- -- --
WDir 30 30 30 30 30 30 30 30 30 30 30 30 30
WSpd 9 9 11 11 11 11 11 11 11 11 11 11 11
WGst -- -- -- -- -- -- -- -- -- -- -- -- --
WSHgt -- -- -- -- -- -- -- -- -- -- -- -- --
WSDir -- -- -- -- -- -- -- -- -- -- -- -- --
WSSpd -- -- -- -- -- -- -- -- -- -- -- -- --
Raw TAF
KPHL 022322Z 0300/0406 04013KT 6SM -RA OVC035
  TEMPO 0300/0302 5SM -RA OVC025
  FM030600 03009KT 6SM -DZ OVC090
  FM031400 03011KT P6SM OVC100
  FM040300 02008KT 6SM -RA SCT030 OVC060


METAR Board
Radar Display
Forecast Discussion
For situational awareness. Not to be used for flight planning purposes.